sensor_id;sensor_type;location;lat;lon;timestamp;P1;durP1;ratioP1;P2;durP2;ratioP2
823;SDS011;373;49.342;8.146;2023-01-05T00:00:53;0.10;;;0.10;;
823;SDS011;373;49.342;8.146;2023-01-05T00:03:20;0.00;;;0.00;;
823;SDS011;373;49.342;8.146;2023-01-05T00:05:48;0.10;;;0.10;;
823;SDS011;373;49.342;8.146;2023-01-05T00:08:15;0.10;;;0.00;;
823;SDS011;373;49.342;8.146;2023-01-05T00:10:42;0.08;;;0.08;;
823;SDS011;373;49.342;8.146;2023-01-05T00:13:26;0.10;;;0.10;;
823;SDS011;373;49.342;8.146;2023-01-05T00:16:13;0.05;;;0.05;;
823;SDS011;373;49.342;8.146;2023-01-05T00:18:57;0.00;;;0.00;;
823;SDS011;373;49.342;8.146;2023-01-05T00:21:42;0.00;;;0.00;;
823;SDS011;373;49.342;8.146;2023-01-05T00:24:42;0.00;;;0.00;;
823;SDS011;373;49.342;8.146;2023-01-05T00:27:09;0.00;;;0.00;;
823;SDS011;373;49.342;8.146;2023-01-05T00:29:36;0.10;;;0.00;;
823;SDS011;373;49.342;8.146;2023-01-05T00:32:04;0.00;;;0.00;;
823;SDS011;373;49.342;8.146;2023-01-05T00:34:31;0.00;;;0.00;;
823;SDS011;373;49.342;8.146;2023-01-05T00:37:00;0.00;;;0.00;;
823;SDS011;373;49.342;8.146;2023-01-05T00:39:27;0.10;;;0.10;;
823;SDS011;373;49.342;8.146;2023-01-05T00:41:54;0.03;;;0.00;;
823;SDS011;373;49.342;8.146;2023-01-05T00:44:21;0.10;;;0.00;;
823;SDS011;373;49.342;8.146;2023-01-05T00:46:48;0.10;;;0.10;;
823;SDS011;373;49.342;8.146;2023-01-05T00:49:16;0.05;;;0.00;;
823;SDS011;373;49.342;8.146;2023-01-05T00:51:43;0.00;;;0.00;;
823;SDS011;373;49.342;8.146;2023-01-05T00:54:10;0.17;;;0.10;;
823;SDS011;373;49.342;8.146;2023-01-05T00:56:37;0.10;;;0.10;;
823;SDS011;373;49.342;8.146;2023-01-05T00:59:05;0.10;;;0.10;;
823;SDS011;373;49.342;8.146;2023-01-05T01:01:32;0.10;;;0.10;;
823;SDS011;373;49.342;8.146;2023-01-05T01:03:59;0.10;;;0.10;;
823;SDS011;373;49.342;8.146;2023-01-05T01:06:28;0.15;;;0.10;;
823;SDS011;373;49.342;8.146;2023-01-05T01:08:55;0.20;;;0.20;;
823;SDS011;373;49.342;8.146;2023-01-05T01:11:23;0.00;;;0.00;;
823;SDS011;373;49.342;8.146;2023-01-05T01:13:50;0.20;;;0.20;;
823;SDS011;373;49.342;8.146;2023-01-05T01:16:17;0.30;;;0.20;;
823;SDS011;373;49.342;8.146;2023-01-05T01:18:44;0.17;;;0.13;;
823;SDS011;373;49.342;8.146;2023-01-05T01:21:12;0.40;;;0.22;;
823;SDS011;373;49.342;8.146;2023-01-05T01:23:41;2.17;;;0.20;;
823;SDS011;373;49.342;8.146;2023-01-05T01:26:10;0.10;;;0.10;;
823;SDS011;373;49.342;8.146;2023-01-05T01:28:40;1.33;;;0.20;;
823;SDS011;373;49.342;8.146;2023-01-05T01:31:07;0.65;;;0.10;;
823;SDS011;373;49.342;8.146;2023-01-05T01:33:37;0.00;;;0.00;;
823;SDS011;373;49.342;8.146;2023-01-05T01:36:05;0.20;;;0.10;;
823;SDS011;373;49.342;8.146;2023-01-05T01:38:34;0.10;;;0.10;;
823;SDS011;373;49.342;8.146;2023-01-05T01:41:03;0.08;;;0.08;;
823;SDS011;373;49.342;8.146;2023-01-05T01:43:42;0.00;;;0.00;;
823;SDS011;373;49.342;8.146;2023-01-05T01:46:13;0.03;;;0.03;;
823;SDS011;373;49.342;8.146;2023-01-05T01:48:42;0.10;;;0.10;;
823;SDS011;373;49.342;8.146;2023-01-05T01:51:13;0.00;;;0.00;;
823;SDS011;373;49.342;8.146;2023-01-05T01:53:44;0.20;;;0.03;;
823;SDS011;373;49.342;8.146;2023-01-05T01:56:16;0.22;;;0.00;;
823;SDS011;373;49.342;8.146;2023-01-05T01:58:46;0.40;;;0.10;;
823;SDS011;373;49.342;8.146;2023-01-05T02:01:14;0.00;;;0.00;;
823;SDS011;373;49.342;8.146;2023-01-05T02:03:42;0.00;;;0.00;;
823;SDS011;373;49.342;8.146;2023-01-05T02:06:09;0.00;;;0.00;;
823;SDS011;373;49.342;8.146;2023-01-05T02:08:37;0.00;;;0.00;;
823;SDS011;373;49.342;8.146;2023-01-05T02:11:08;0.03;;;0.00;;
823;SDS011;373;49.342;8.146;2023-01-05T02:13:55;0.90;;;0.00;;
823;SDS011;373;49.342;8.146;2023-01-05T02:16:34;0.10;;;0.10;;
823;SDS011;373;49.342;8.146;2023-01-05T02:19:20;1.20;;;0.10;;
823;SDS011;373;49.342;8.146;2023-01-05T02:22:19;0.25;;;0.10;;
823;SDS011;373;49.342;8.146;2023-01-05T02:25:11;0.10;;;0.10;;
823;SDS011;373;49.342;8.146;2023-01-05T02:28:07;0.20;;;0.20;;
823;SDS011;373;49.342;8.146;2023-01-05T02:31:00;0.20;;;0.20;;
823;SDS011;373;49.342;8.146;2023-01-05T02:33:48;0.15;;;0.15;;
823;SDS011;373;49.342;8.146;2023-01-05T02:36:27;0.20;;;0.20;;
823;SDS011;373;49.342;8.146;2023-01-05T02:39:03;0.20;;;0.20;;
823;SDS011;373;49.342;8.146;2023-01-05T02:41:37;0.60;;;0.50;;
823;SDS011;373;49.342;8.146;2023-01-05T02:44:09;0.20;;;0.20;;
823;SDS011;373;49.342;8.146;2023-01-05T02:46:41;0.93;;;0.28;;
823;SDS011;373;49.342;8.146;2023-01-05T02:49:08;0.22;;;0.22;;
823;SDS011;373;49.342;8.146;2023-01-05T02:51:36;0.20;;;0.20;;
823;SDS011;373;49.342;8.146;2023-01-05T02:54:08;0.63;;;0.20;;
823;SDS011;373;49.342;8.146;2023-01-05T02:56:40;0.22;;;0.22;;
823;SDS011;373;49.342;8.146;2023-01-05T02:59:13;0.10;;;0.10;;
823;SDS011;373;49.342;8.146;2023-01-05T03:01:46;1.38;;;0.40;;
823;SDS011;373;49.342;8.146;2023-01-05T03:04:18;0.30;;;0.20;;
823;SDS011;373;49.342;8.146;2023-01-05T03:06:50;0.40;;;0.15;;
823;SDS011;373;49.342;8.146;2023-01-05T03:09:23;0.50;;;0.20;;
823;SDS011;373;49.342;8.146;2023-01-05T03:11:56;0.90;;;0.20;;
823;SDS011;373;49.342;8.146;2023-01-05T03:14:45;0.10;;;0.10;;
823;SDS011;373;49.342;8.146;2023-01-05T03:17:18;0.75;;;0.28;;
823;SDS011;373;49.342;8.146;2023-01-05T03:19:51;0.25;;;0.25;;
823;SDS011;373;49.342;8.146;2023-01-05T03:22:23;0.20;;;0.20;;
823;SDS011;373;49.342;8.146;2023-01-05T03:25:12;0.30;;;0.30;;
823;SDS011;373;49.342;8.146;2023-01-05T03:27:59;0.40;;;0.30;;
823;SDS011;373;49.342;8.146;2023-01-05T03:30:48;1.38;;;0.28;;
823;SDS011;373;49.342;8.146;2023-01-05T03:33:44;0.52;;;0.30;;
823;SDS011;373;49.342;8.146;2023-01-05T03:36:35;0.60;;;0.30;;
823;SDS011;373;49.342;8.146;2023-01-05T03:39:09;0.57;;;0.32;;
823;SDS011;373;49.342;8.146;2023-01-05T03:41:39;0.32;;;0.32;;
823;SDS011;373;49.342;8.146;2023-01-05T03:44:06;0.55;;;0.40;;
823;SDS011;373;49.342;8.146;2023-01-05T03:46:37;0.52;;;0.38;;
823;SDS011;373;49.342;8.146;2023-01-05T03:49:07;0.35;;;0.32;;
823;SDS011;373;49.342;8.146;2023-01-05T03:51:35;1.40;;;0.40;;
823;SDS011;373;49.342;8.146;2023-01-05T03:54:02;0.75;;;0.40;;
823;SDS011;373;49.342;8.146;2023-01-05T03:56:33;1.42;;;0.40;;
823;SDS011;373;49.342;8.146;2023-01-05T03:59:00;1.65;;;0.68;;
823;SDS011;373;49.342;8.146;2023-01-05T04:01:27;1.20;;;0.50;;
823;SDS011;373;49.342;8.146;2023-01-05T04:03:55;3.17;;;0.88;;
823;SDS011;373;49.342;8.146;2023-01-05T04:06:23;2.47;;;0.95;;
823;SDS011;373;49.342;8.146;2023-01-05T04:08:51;3.05;;;1.05;;
823;SDS011;373;49.342;8.146;2023-01-05T04:11:19;2.83;;;0.80;;
823;SDS011;373;49.342;8.146;2023-01-05T04:13:53;3.63;;;0.82;;
823;SDS011;373;49.342;8.146;2023-01-05T04:16:21;4.72;;;0.88;;
823;SDS011;373;49.342;8.146;2023-01-05T04:18:50;1.70;;;0.60;;
823;SDS011;373;49.342;8.146;2023-01-05T04:21:20;3.15;;;0.93;;
823;SDS011;373;49.342;8.146;2023-01-05T04:23:50;4.82;;;1.70;;
823;SDS011;373;49.342;8.146;2023-01-05T04:26:17;6.55;;;2.00;;
823;SDS011;373;49.342;8.146;2023-01-05T04:28:48;7.88;;;2.58;;
823;SDS011;373;49.342;8.146;2023-01-05T04:31:17;6.90;;;2.28;;
823;SDS011;373;49.342;8.146;2023-01-05T04:33:45;8.10;;;2.20;;
823;SDS011;373;49.342;8.146;2023-01-05T04:36:16;4.55;;;1.27;;
823;SDS011;373;49.342;8.146;2023-01-05T04:38:43;9.27;;;2.67;;
823;SDS011;373;49.342;8.146;2023-01-05T04:41:12;7.50;;;2.38;;
823;SDS011;373;49.342;8.146;2023-01-05T04:43:42;9.93;;;2.08;;
823;SDS011;373;49.342;8.146;2023-01-05T04:46:09;7.65;;;2.80;;
823;SDS011;373;49.342;8.146;2023-01-05T04:48:36;7.38;;;2.45;;
823;SDS011;373;49.342;8.146;2023-01-05T04:51:04;9.18;;;2.33;;
823;SDS011;373;49.342;8.146;2023-01-05T04:53:35;5.72;;;2.03;;
823;SDS011;373;49.342;8.146;2023-01-05T04:56:04;8.73;;;2.50;;
823;SDS011;373;49.342;8.146;2023-01-05T04:58:39;5.97;;;1.83;;
823;SDS011;373;49.342;8.146;2023-01-05T05:01:06;7.95;;;2.53;;
823;SDS011;373;49.342;8.146;2023-01-05T05:03:35;7.72;;;2.28;;
823;SDS011;373;49.342;8.146;2023-01-05T05:06:05;5.15;;;1.77;;
823;SDS011;373;49.342;8.146;2023-01-05T05:08:32;6.22;;;2.20;;
823;SDS011;373;49.342;8.146;2023-01-05T05:11:01;7.82;;;2.45;;
823;SDS011;373;49.342;8.146;2023-01-05T05:13:31;7.15;;;1.75;;
823;SDS011;373;49.342;8.146;2023-01-05T05:16:01;7.07;;;1.60;;
823;SDS011;373;49.342;8.146;2023-01-05T05:18:29;8.00;;;2.00;;
823;SDS011;373;49.342;8.146;2023-01-05T05:20:57;9.88;;;1.90;;
823;SDS011;373;49.342;8.146;2023-01-05T05:23:29;7.47;;;2.28;;
823;SDS011;373;49.342;8.146;2023-01-05T05:25:57;9.95;;;2.17;;
823;SDS011;373;49.342;8.146;2023-01-05T05:28:25;8.50;;;2.95;;
823;SDS011;373;49.342;8.146;2023-01-05T05:30:53;5.50;;;2.03;;
823;SDS011;373;49.342;8.146;2023-01-05T05:33:23;5.97;;;2.20;;
823;SDS011;373;49.342;8.146;2023-01-05T05:35:50;8.52;;;2.42;;
823;SDS011;373;49.342;8.146;2023-01-05T05:38:17;12.20;;;2.38;;
823;SDS011;373;49.342;8.146;2023-01-05T05:40:46;9.55;;;2.45;;
823;SDS011;373;49.342;8.146;2023-01-05T05:43:14;7.13;;;2.47;;
823;SDS011;373;49.342;8.146;2023-01-05T05:45:41;6.57;;;2.45;;
823;SDS011;373;49.342;8.146;2023-01-05T05:48:08;7.57;;;2.30;;
823;SDS011;373;49.342;8.146;2023-01-05T05:50:37;5.63;;;2.42;;
823;SDS011;373;49.342;8.146;2023-01-05T05:53:04;5.90;;;2.00;;
823;SDS011;373;49.342;8.146;2023-01-05T05:55:31;8.13;;;2.92;;
823;SDS011;373;49.342;8.146;2023-01-05T05:57:59;7.53;;;2.33;;
823;SDS011;373;49.342;8.146;2023-01-05T06:00:26;8.15;;;2.58;;
823;SDS011;373;49.342;8.146;2023-01-05T06:02:53;9.93;;;2.13;;
823;SDS011;373;49.342;8.146;2023-01-05T06:05:21;7.45;;;2.10;;
823;SDS011;373;49.342;8.146;2023-01-05T06:07:49;7.22;;;2.70;;
823;SDS011;373;49.342;8.146;2023-01-05T06:10:16;7.82;;;2.17;;
823;SDS011;373;49.342;8.146;2023-01-05T06:12:43;9.90;;;2.47;;
823;SDS011;373;49.342;8.146;2023-01-05T06:15:10;9.27;;;2.13;;
823;SDS011;373;49.342;8.146;2023-01-05T06:17:37;10.90;;;2.67;;
823;SDS011;373;49.342;8.146;2023-01-05T06:20:05;7.50;;;1.67;;
823;SDS011;373;49.342;8.146;2023-01-05T06:22:33;6.13;;;2.20;;
823;SDS011;373;49.342;8.146;2023-01-05T06:25:02;6.50;;;2.15;;
823;SDS011;373;49.342;8.146;2023-01-05T06:27:30;6.70;;;2.53;;
823;SDS011;373;49.342;8.146;2023-01-05T06:29:57;5.60;;;1.67;;
823;SDS011;373;49.342;8.146;2023-01-05T06:32:24;7.03;;;2.03;;
823;SDS011;373;49.342;8.146;2023-01-05T06:34:51;7.63;;;2.15;;
823;SDS011;373;49.342;8.146;2023-01-05T06:37:18;7.55;;;1.80;;
823;SDS011;373;49.342;8.146;2023-01-05T06:39:45;7.15;;;1.92;;
823;SDS011;373;49.342;8.146;2023-01-05T06:42:14;5.80;;;1.98;;
823;SDS011;373;49.342;8.146;2023-01-05T06:44:41;7.00;;;2.75;;
823;SDS011;373;49.342;8.146;2023-01-05T06:47:08;5.47;;;1.85;;
823;SDS011;373;49.342;8.146;2023-01-05T06:49:35;6.15;;;1.70;;
823;SDS011;373;49.342;8.146;2023-01-05T06:52:03;5.07;;;1.50;;
823;SDS011;373;49.342;8.146;2023-01-05T06:54:30;6.50;;;1.85;;
823;SDS011;373;49.342;8.146;2023-01-05T06:56:57;5.10;;;1.70;;
823;SDS011;373;49.342;8.146;2023-01-05T06:59:26;6.53;;;1.90;;
823;SDS011;373;49.342;8.146;2023-01-05T07:01:53;5.75;;;1.55;;
823;SDS011;373;49.342;8.146;2023-01-05T07:04:20;7.55;;;1.85;;
823;SDS011;373;49.342;8.146;2023-01-05T07:06:49;9.10;;;2.47;;
823;SDS011;373;49.342;8.146;2023-01-05T07:09:16;7.05;;;1.77;;
823;SDS011;373;49.342;8.146;2023-01-05T07:11:43;6.90;;;1.60;;
823;SDS011;373;49.342;8.146;2023-01-05T07:14:10;6.18;;;2.33;;
823;SDS011;373;49.342;8.146;2023-01-05T07:16:39;3.88;;;1.70;;
823;SDS011;373;49.342;8.146;2023-01-05T07:19:06;7.15;;;2.15;;
823;SDS011;373;49.342;8.146;2023-01-05T07:21:33;8.70;;;2.15;;
823;SDS011;373;49.342;8.146;2023-01-05T07:24:00;6.70;;;1.60;;
823;SDS011;373;49.342;8.146;2023-01-05T07:26:28;8.90;;;2.13;;
823;SDS011;373;49.342;8.146;2023-01-05T07:28:56;8.20;;;1.95;;
823;SDS011;373;49.342;8.146;2023-01-05T07:31:23;5.13;;;2.05;;
823;SDS011;373;49.342;8.146;2023-01-05T07:33:52;6.95;;;2.45;;
823;SDS011;373;49.342;8.146;2023-01-05T07:36:19;5.88;;;1.83;;
823;SDS011;373;49.342;8.146;2023-01-05T07:38:46;7.38;;;1.90;;
823;SDS011;373;49.342;8.146;2023-01-05T07:41:13;10.93;;;2.63;;
823;SDS011;373;49.342;8.146;2023-01-05T07:43:40;7.80;;;2.10;;
823;SDS011;373;49.342;8.146;2023-01-05T07:46:07;5.68;;;2.15;;
823;SDS011;373;49.342;8.146;2023-01-05T07:48:34;7.50;;;2.20;;
823;SDS011;373;49.342;8.146;2023-01-05T07:51:03;9.25;;;1.92;;
823;SDS011;373;49.342;8.146;2023-01-05T07:53:31;9.77;;;2.50;;
823;SDS011;373;49.342;8.146;2023-01-05T07:56:01;8.90;;;1.90;;
823;SDS011;373;49.342;8.146;2023-01-05T07:58:30;10.35;;;2.53;;
823;SDS011;373;49.342;8.146;2023-01-05T08:01:01;5.32;;;2.20;;
823;SDS011;373;49.342;8.146;2023-01-05T08:03:29;5.60;;;1.95;;
823;SDS011;373;49.342;8.146;2023-01-05T08:05:57;7.07;;;2.33;;
823;SDS011;373;49.342;8.146;2023-01-05T08:08:30;8.05;;;2.33;;
823;SDS011;373;49.342;8.146;2023-01-05T08:10:57;8.68;;;2.25;;
823;SDS011;373;49.342;8.146;2023-01-05T08:13:24;5.43;;;2.30;;
823;SDS011;373;49.342;8.146;2023-01-05T08:16:08;4.97;;;2.20;;
823;SDS011;373;49.342;8.146;2023-01-05T08:18:36;8.50;;;2.30;;
823;SDS011;373;49.342;8.146;2023-01-05T08:21:05;5.70;;;2.15;;
823;SDS011;373;49.342;8.146;2023-01-05T08:23:34;8.65;;;2.53;;
823;SDS011;373;49.342;8.146;2023-01-05T08:26:02;6.50;;;2.45;;
823;SDS011;373;49.342;8.146;2023-01-05T08:28:30;10.50;;;2.17;;
823;SDS011;373;49.342;8.146;2023-01-05T08:31:01;3.58;;;1.63;;
823;SDS011;373;49.342;8.146;2023-01-05T08:33:29;7.57;;;2.20;;
823;SDS011;373;49.342;8.146;2023-01-05T08:35:56;6.43;;;2.35;;
823;SDS011;373;49.342;8.146;2023-01-05T08:38:24;5.13;;;1.70;;
823;SDS011;373;49.342;8.146;2023-01-05T08:40:52;5.95;;;2.00;;
823;SDS011;373;49.342;8.146;2023-01-05T08:43:22;7.53;;;2.65;;
823;SDS011;373;49.342;8.146;2023-01-05T08:45:50;9.13;;;2.72;;
823;SDS011;373;49.342;8.146;2023-01-05T08:48:17;8.48;;;2.30;;
823;SDS011;373;49.342;8.146;2023-01-05T08:50:44;5.50;;;2.22;;
823;SDS011;373;49.342;8.146;2023-01-05T08:53:11;8.13;;;2.50;;
823;SDS011;373;49.342;8.146;2023-01-05T08:55:39;5.85;;;2.75;;
823;SDS011;373;49.342;8.146;2023-01-05T08:58:07;6.95;;;2.30;;
823;SDS011;373;49.342;8.146;2023-01-05T09:00:34;7.68;;;2.65;;
823;SDS011;373;49.342;8.146;2023-01-05T09:03:01;11.23;;;2.58;;
823;SDS011;373;49.342;8.146;2023-01-05T09:05:28;6.75;;;2.00;;
823;SDS011;373;49.342;8.146;2023-01-05T09:07:55;6.30;;;2.00;;
823;SDS011;373;49.342;8.146;2023-01-05T09:10:22;6.43;;;2.92;;
823;SDS011;373;49.342;8.146;2023-01-05T09:12:51;10.25;;;2.47;;
823;SDS011;373;49.342;8.146;2023-01-05T09:15:18;7.75;;;2.38;;
823;SDS011;373;49.342;8.146;2023-01-05T09:17:45;8.95;;;2.55;;
823;SDS011;373;49.342;8.146;2023-01-05T09:20:12;7.88;;;2.60;;
823;SDS011;373;49.342;8.146;2023-01-05T09:22:39;7.00;;;2.80;;
823;SDS011;373;49.342;8.146;2023-01-05T09:25:07;10.05;;;2.53;;
823;SDS011;373;49.342;8.146;2023-01-05T09:27:34;12.05;;;2.38;;
823;SDS011;373;49.342;8.146;2023-01-05T09:30:03;10.45;;;2.92;;
823;SDS011;373;49.342;8.146;2023-01-05T09:32:31;8.07;;;2.70;;
823;SDS011;373;49.342;8.146;2023-01-05T09:34:58;9.70;;;3.15;;
823;SDS011;373;49.342;8.146;2023-01-05T09:37:26;6.82;;;2.15;;
823;SDS011;373;49.342;8.146;2023-01-05T09:39:53;7.60;;;3.30;;
823;SDS011;373;49.342;8.146;2023-01-05T09:42:20;10.23;;;2.83;;
823;SDS011;373;49.342;8.146;2023-01-05T09:44:51;8.82;;;2.25;;
823;SDS011;373;49.342;8.146;2023-01-05T09:47:25;5.90;;;1.70;;
823;SDS011;373;49.342;8.146;2023-01-05T09:49:57;5.60;;;2.00;;
823;SDS011;373;49.342;8.146;2023-01-05T09:52:25;9.63;;;2.53;;
823;SDS011;373;49.342;8.146;2023-01-05T09:54:53;8.05;;;1.98;;
823;SDS011;373;49.342;8.146;2023-01-05T09:57:22;7.50;;;2.20;;
823;SDS011;373;49.342;8.146;2023-01-05T09:59:52;8.88;;;2.67;;
823;SDS011;373;49.342;8.146;2023-01-05T10:02:28;7.82;;;2.30;;
823;SDS011;373;49.342;8.146;2023-01-05T10:05:00;6.85;;;2.42;;
823;SDS011;373;49.342;8.146;2023-01-05T10:07:31;6.60;;;2.47;;
823;SDS011;373;49.342;8.146;2023-01-05T10:10:07;7.68;;;2.85;;
823;SDS011;373;49.342;8.146;2023-01-05T10:12:47;9.20;;;2.25;;
823;SDS011;373;49.342;8.146;2023-01-05T10:15:29;11.32;;;2.50;;
823;SDS011;373;49.342;8.146;2023-01-05T10:18:11;12.18;;;2.92;;
823;SDS011;373;49.342;8.146;2023-01-05T10:20:43;7.38;;;2.78;;
823;SDS011;373;49.342;8.146;2023-01-05T10:23:20;7.60;;;2.75;;
823;SDS011;373;49.342;8.146;2023-01-05T10:26:11;9.35;;;2.55;;
823;SDS011;373;49.342;8.146;2023-01-05T10:28:46;9.13;;;2.55;;
823;SDS011;373;49.342;8.146;2023-01-05T10:31:21;7.75;;;2.83;;
823;SDS011;373;49.342;8.146;2023-01-05T10:33:51;5.32;;;2.83;;
823;SDS011;373;49.342;8.146;2023-01-05T10:36:28;7.72;;;2.80;;
823;SDS011;373;49.342;8.146;2023-01-05T10:39:08;10.02;;;2.22;;
823;SDS011;373;49.342;8.146;2023-01-05T10:41:48;6.47;;;2.95;;
823;SDS011;373;49.342;8.146;2023-01-05T10:44:37;6.95;;;2.65;;
823;SDS011;373;49.342;8.146;2023-01-05T10:47:17;11.30;;;2.55;;
823;SDS011;373;49.342;8.146;2023-01-05T10:49:47;7.32;;;2.65;;
823;SDS011;373;49.342;8.146;2023-01-05T10:52:15;9.10;;;2.35;;
823;SDS011;373;49.342;8.146;2023-01-05T10:54:43;9.98;;;2.85;;
823;SDS011;373;49.342;8.146;2023-01-05T10:57:32;7.90;;;3.50;;
823;SDS011;373;49.342;8.146;2023-01-05T11:00:04;10.10;;;2.85;;
823;SDS011;373;49.342;8.146;2023-01-05T11:02:34;9.15;;;3.13;;
823;SDS011;373;49.342;8.146;2023-01-05T11:05:05;10.00;;;3.05;;
823;SDS011;373;49.342;8.146;2023-01-05T11:07:46;9.80;;;3.05;;
823;SDS011;373;49.342;8.146;2023-01-05T11:10:17;8.40;;;3.17;;
823;SDS011;373;49.342;8.146;2023-01-05T11:12:52;6.45;;;2.28;;
823;SDS011;373;49.342;8.146;2023-01-05T11:15:24;6.60;;;2.25;;
823;SDS011;373;49.342;8.146;2023-01-05T11:17:51;8.68;;;2.75;;
823;SDS011;373;49.342;8.146;2023-01-05T11:20:20;7.68;;;2.65;;
823;SDS011;373;49.342;8.146;2023-01-05T11:22:48;8.75;;;2.67;;
823;SDS011;373;49.342;8.146;2023-01-05T11:25:21;11.48;;;3.13;;
823;SDS011;373;49.342;8.146;2023-01-05T11:28:05;7.90;;;2.53;;
823;SDS011;373;49.342;8.146;2023-01-05T11:30:37;9.93;;;2.60;;
823;SDS011;373;49.342;8.146;2023-01-05T11:33:13;11.00;;;2.90;;
823;SDS011;373;49.342;8.146;2023-01-05T11:35:48;11.80;;;3.63;;
823;SDS011;373;49.342;8.146;2023-01-05T11:38:19;6.70;;;2.67;;
823;SDS011;373;49.342;8.146;2023-01-05T11:40:52;7.03;;;2.50;;
823;SDS011;373;49.342;8.146;2023-01-05T11:43:22;6.78;;;2.30;;
823;SDS011;373;49.342;8.146;2023-01-05T11:45:52;7.00;;;2.05;;
823;SDS011;373;49.342;8.146;2023-01-05T11:48:22;13.00;;;2.90;;
823;SDS011;373;49.342;8.146;2023-01-05T11:50:54;7.35;;;2.88;;
823;SDS011;373;49.342;8.146;2023-01-05T11:53:23;7.95;;;2.80;;
823;SDS011;373;49.342;8.146;2023-01-05T11:56:01;7.35;;;2.40;;
823;SDS011;373;49.342;8.146;2023-01-05T11:58:31;7.57;;;2.75;;
823;SDS011;373;49.342;8.146;2023-01-05T12:01:05;10.23;;;3.25;;
823;SDS011;373;49.342;8.146;2023-01-05T12:04:01;8.65;;;2.45;;
823;SDS011;373;49.342;8.146;2023-01-05T12:06:40;6.18;;;2.35;;
823;SDS011;373;49.342;8.146;2023-01-05T12:09:19;12.32;;;3.53;;
823;SDS011;373;49.342;8.146;2023-01-05T12:11:53;10.75;;;2.80;;
823;SDS011;373;49.342;8.146;2023-01-05T12:14:35;7.50;;;2.80;;
823;SDS011;373;49.342;8.146;2023-01-05T12:17:15;12.13;;;3.03;;
823;SDS011;373;49.342;8.146;2023-01-05T12:19:55;8.52;;;2.38;;
823;SDS011;373;49.342;8.146;2023-01-05T12:25:51;7.70;;;2.80;;
823;SDS011;373;49.342;8.146;2023-01-05T12:28:30;10.32;;;3.00;;
823;SDS011;373;49.342;8.146;2023-01-05T12:31:15;11.90;;;4.00;;
823;SDS011;373;49.342;8.146;2023-01-05T12:34:00;10.38;;;2.90;;
823;SDS011;373;49.342;8.146;2023-01-05T12:36:38;6.72;;;3.22;;
823;SDS011;373;49.342;8.146;2023-01-05T12:42:20;9.02;;;2.90;;
823;SDS011;373;49.342;8.146;2023-01-05T12:45:07;12.00;;;3.42;;
823;SDS011;373;49.342;8.146;2023-01-05T12:47:51;9.68;;;2.30;;
823;SDS011;373;49.342;8.146;2023-01-05T12:50:24;9.05;;;2.53;;
823;SDS011;373;49.342;8.146;2023-01-05T12:52:57;6.97;;;2.42;;
823;SDS011;373;49.342;8.146;2023-01-05T12:55:34;5.90;;;2.25;;
823;SDS011;373;49.342;8.146;2023-01-05T12:58:07;8.48;;;2.97;;
823;SDS011;373;49.342;8.146;2023-01-05T13:00:38;9.35;;;2.67;;
823;SDS011;373;49.342;8.146;2023-01-05T13:03:13;7.47;;;2.38;;
823;SDS011;373;49.342;8.146;2023-01-05T13:05:45;8.75;;;2.78;;
823;SDS011;373;49.342;8.146;2023-01-05T13:08:19;7.13;;;2.28;;
823;SDS011;373;49.342;8.146;2023-01-05T13:10:52;8.63;;;3.53;;
823;SDS011;373;49.342;8.146;2023-01-05T13:13:26;9.13;;;2.70;;
823;SDS011;373;49.342;8.146;2023-01-05T13:15:55;8.18;;;2.67;;
823;SDS011;373;49.342;8.146;2023-01-05T13:18:28;7.85;;;2.53;;
823;SDS011;373;49.342;8.146;2023-01-05T13:20:58;11.35;;;2.97;;
823;SDS011;373;49.342;8.146;2023-01-05T13:23:27;13.07;;;3.88;;
823;SDS011;373;49.342;8.146;2023-01-05T13:25:58;10.95;;;3.70;;
823;SDS011;373;49.342;8.146;2023-01-05T13:28:30;9.55;;;2.70;;
823;SDS011;373;49.342;8.146;2023-01-05T13:31:07;12.00;;;4.05;;
823;SDS011;373;49.342;8.146;2023-01-05T13:37:17;9.13;;;2.65;;
823;SDS011;373;49.342;8.146;2023-01-05T13:40:02;6.82;;;2.63;;
823;SDS011;373;49.342;8.146;2023-01-05T13:42:58;7.05;;;2.70;;
823;SDS011;373;49.342;8.146;2023-01-05T13:45:50;8.00;;;3.10;;
823;SDS011;373;49.342;8.146;2023-01-05T13:48:39;8.43;;;2.05;;
823;SDS011;373;49.342;8.146;2023-01-05T13:51:31;8.38;;;2.85;;
823;SDS011;373;49.342;8.146;2023-01-05T13:54:15;10.13;;;2.50;;
823;SDS011;373;49.342;8.146;2023-01-05T13:56:45;12.40;;;2.60;;
823;SDS011;373;49.342;8.146;2023-01-05T13:59:20;7.55;;;2.60;;
823;SDS011;373;49.342;8.146;2023-01-05T14:01:51;9.88;;;2.53;;
823;SDS011;373;49.342;8.146;2023-01-05T14:04:21;11.70;;;3.05;;
823;SDS011;373;49.342;8.146;2023-01-05T14:06:50;11.65;;;3.70;;
823;SDS011;373;49.342;8.146;2023-01-05T14:09:25;8.00;;;2.78;;
823;SDS011;373;49.342;8.146;2023-01-05T14:15:03;10.65;;;3.50;;
823;SDS011;373;49.342;8.146;2023-01-05T14:17:54;8.80;;;2.95;;
823;SDS011;373;49.342;8.146;2023-01-05T14:20:31;5.85;;;2.53;;
823;SDS011;373;49.342;8.146;2023-01-05T14:23:01;6.80;;;2.65;;
823;SDS011;373;49.342;8.146;2023-01-05T14:25:50;7.05;;;2.33;;
823;SDS011;373;49.342;8.146;2023-01-05T14:28:20;10.23;;;2.53;;
823;SDS011;373;49.342;8.146;2023-01-05T14:30:50;8.95;;;3.60;;
823;SDS011;373;49.342;8.146;2023-01-05T14:33:44;8.45;;;2.50;;
823;SDS011;373;49.342;8.146;2023-01-05T14:36:22;10.32;;;3.13;;
823;SDS011;373;49.342;8.146;2023-01-05T14:38:50;9.48;;;3.00;;
823;SDS011;373;49.342;8.146;2023-01-05T14:41:19;11.85;;;3.72;;
823;SDS011;373;49.342;8.146;2023-01-05T14:43:53;7.35;;;2.55;;
823;SDS011;373;49.342;8.146;2023-01-05T14:46:24;6.63;;;2.70;;
823;SDS011;373;49.342;8.146;2023-01-05T14:48:58;9.35;;;3.28;;
823;SDS011;373;49.342;8.146;2023-01-05T14:51:27;9.45;;;3.05;;
823;SDS011;373;49.342;8.146;2023-01-05T14:53:57;11.02;;;2.72;;
823;SDS011;373;49.342;8.146;2023-01-05T14:56:28;9.52;;;3.22;;
823;SDS011;373;49.342;8.146;2023-01-05T14:59:11;7.65;;;3.08;;
823;SDS011;373;49.342;8.146;2023-01-05T15:01:47;10.13;;;2.83;;
823;SDS011;373;49.342;8.146;2023-01-05T15:04:17;11.57;;;2.90;;
823;SDS011;373;49.342;8.146;2023-01-05T15:06:51;9.13;;;2.92;;
823;SDS011;373;49.342;8.146;2023-01-05T15:12:42;8.52;;;2.92;;
823;SDS011;373;49.342;8.146;2023-01-05T15:15:26;8.98;;;2.55;;
823;SDS011;373;49.342;8.146;2023-01-05T15:18:10;13.48;;;4.07;;
823;SDS011;373;49.342;8.146;2023-01-05T15:21:01;9.50;;;2.60;;
823;SDS011;373;49.342;8.146;2023-01-05T15:26:53;7.35;;;3.17;;
823;SDS011;373;49.342;8.146;2023-01-05T15:29:40;6.47;;;2.67;;
823;SDS011;373;49.342;8.146;2023-01-05T15:32:23;9.60;;;2.58;;
823;SDS011;373;49.342;8.146;2023-01-05T15:34:59;11.32;;;3.10;;
823;SDS011;373;49.342;8.146;2023-01-05T15:37:32;10.60;;;3.33;;
823;SDS011;373;49.342;8.146;2023-01-05T15:40:00;11.05;;;3.30;;
823;SDS011;373;49.342;8.146;2023-01-05T15:42:36;14.05;;;3.67;;
823;SDS011;373;49.342;8.146;2023-01-05T15:45:05;11.02;;;2.70;;
823;SDS011;373;49.342;8.146;2023-01-05T15:47:40;14.40;;;3.25;;
823;SDS011;373;49.342;8.146;2023-01-05T15:50:15;8.77;;;3.05;;
823;SDS011;373;49.342;8.146;2023-01-05T15:52:50;7.57;;;3.00;;
823;SDS011;373;49.342;8.146;2023-01-05T15:55:19;8.25;;;2.97;;
823;SDS011;373;49.342;8.146;2023-01-05T15:57:56;11.70;;;2.55;;
823;SDS011;373;49.342;8.146;2023-01-05T16:00:27;6.43;;;2.25;;
823;SDS011;373;49.342;8.146;2023-01-05T16:02:55;7.72;;;2.53;;
823;SDS011;373;49.342;8.146;2023-01-05T16:05:24;7.50;;;2.65;;
823;SDS011;373;49.342;8.146;2023-01-05T16:07:54;8.93;;;2.85;;
823;SDS011;373;49.342;8.146;2023-01-05T16:10:24;7.82;;;2.40;;
823;SDS011;373;49.342;8.146;2023-01-05T16:12:55;7.30;;;2.80;;
823;SDS011;373;49.342;8.146;2023-01-05T16:15:26;9.02;;;3.53;;
823;SDS011;373;49.342;8.146;2023-01-05T16:17:58;11.30;;;2.97;;
823;SDS011;373;49.342;8.146;2023-01-05T16:20:27;7.97;;;2.58;;
823;SDS011;373;49.342;8.146;2023-01-05T16:22:56;8.73;;;2.90;;
823;SDS011;373;49.342;8.146;2023-01-05T16:25:29;7.25;;;3.15;;
823;SDS011;373;49.342;8.146;2023-01-05T16:28:02;12.50;;;3.65;;
823;SDS011;373;49.342;8.146;2023-01-05T16:30:34;10.75;;;3.47;;
823;SDS011;373;49.342;8.146;2023-01-05T16:33:03;8.40;;;3.90;;